createdAt,value
2023-01-17T00:04:34.435Z,97.61
2023-01-17T00:09:53.176Z,98.05
2023-01-17T00:14:58.889Z,98.43
2023-01-17T00:20:21.678Z,98.52
2023-01-17T00:25:45.367Z,98.55
2023-01-17T00:30:49.297Z,98.61
2023-01-17T00:35:53.906Z,98.69
2023-01-17T00:41:03.188Z,99.18
2023-01-17T00:46:26.027Z,98.70
2023-01-17T00:51:50.255Z,99.32
2023-01-17T00:57:13.064Z,99.58
2023-01-17T01:02:45.014Z,99.77
2023-01-17T01:08:07.338Z,99.63
2023-01-17T01:13:29.388Z,99.41
2023-01-17T01:18:51.523Z,99.81
2023-01-17T01:24:13.866Z,99.82
2023-01-17T01:29:36.716Z,99.91
2023-01-17T01:34:40.202Z,100.00
2023-01-17T01:39:44.021Z,100.00
2023-01-17T01:44:52.527Z,100.00
2023-01-17T01:49:56.535Z,100.00
2023-01-17T01:55:26.571Z,100.00
2023-01-17T02:00:34.536Z,100.00
2023-01-17T02:05:38.615Z,100.00
2023-01-17T02:10:44.543Z,100.00
2023-01-17T02:16:16.743Z,100.00
2023-01-17T02:21:23.560Z,100.00
2023-01-17T02:27:03.427Z,100.00
2023-01-17T02:32:18.156Z,100.00
2023-01-17T02:37:42.194Z,100.00
2023-01-17T02:42:57.215Z,100.00
2023-01-17T02:48:01.231Z,100.00
2023-01-17T02:53:44.087Z,99.93
2023-01-17T02:59:19.169Z,99.60
2023-01-17T03:04:29.656Z,99.60
2023-01-17T03:09:34.000Z,99.28
2023-01-17T03:14:37.710Z,99.08
2023-01-17T03:19:41.271Z,99.31
2023-01-17T03:24:45.535Z,99.18
2023-01-17T03:29:49.610Z,99.50
2023-01-17T03:34:53.202Z,99.79
2023-01-17T03:39:56.773Z,99.79
2023-01-17T03:45:00.925Z,99.97
2023-01-17T03:50:05.697Z,99.63
2023-01-17T03:55:09.976Z,99.16
2023-01-17T04:00:14.220Z,98.84
2023-01-17T04:05:18.614Z,98.42
2023-01-17T04:10:22.195Z,98.92
2023-01-17T04:15:25.989Z,98.76
2023-01-17T04:20:37.675Z,98.78
2023-01-17T04:25:41.460Z,99.16
2023-01-17T04:30:45.089Z,99.18
2023-01-17T04:35:48.820Z,98.52
2023-01-17T04:40:52.579Z,98.44
2023-01-17T04:45:57.635Z,98.26
2023-01-17T04:51:02.692Z,98.31
2023-01-17T04:56:06.611Z,98.40
2023-01-17T05:01:10.579Z,97.97
2023-01-17T05:06:14.314Z,98.37
2023-01-17T05:11:18.314Z,98.52
2023-01-17T05:16:21.957Z,98.37
2023-01-17T05:21:25.698Z,98.52
2023-01-17T05:26:29.449Z,98.36
2023-01-17T05:31:33.139Z,98.43
2023-01-17T05:36:36.749Z,98.44
2023-01-17T05:41:40.626Z,98.35
2023-01-17T05:46:44.312Z,98.16
2023-01-17T05:51:48.277Z,98.07
2023-01-17T05:56:51.943Z,98.25
2023-01-17T06:01:55.662Z,98.17
2023-01-17T06:06:59.355Z,98.10
2023-01-17T06:12:03.010Z,98.17
2023-01-17T06:17:06.695Z,98.02
2023-01-17T06:22:11.015Z,97.59
2023-01-17T06:27:15.179Z,97.67
2023-01-17T06:32:19.598Z,97.02
2023-01-17T06:37:23.263Z,97.25
2023-01-17T06:42:26.962Z,97.22
2023-01-17T06:47:30.585Z,97.30
2023-01-17T06:52:34.286Z,97.00
2023-01-17T06:57:38.493Z,96.82
2023-01-17T07:02:42.170Z,96.61
2023-01-17T07:07:49.300Z,96.92
2023-01-17T07:13:01.375Z,97.13
2023-01-17T07:18:05.117Z,96.70
2023-01-17T07:23:08.814Z,96.74
2023-01-17T07:28:12.460Z,96.75
2023-01-17T07:33:18.730Z,96.99
2023-01-17T07:38:23.070Z,96.13
2023-01-17T07:43:28.413Z,96.40
2023-01-17T07:48:32.023Z,96.39
2023-01-17T07:53:36.749Z,95.97
2023-01-17T07:58:40.757Z,95.77
2023-01-17T08:03:44.490Z,95.83
2023-01-17T08:08:49.943Z,95.86
2023-01-17T08:14:00.448Z,96.01
2023-01-17T08:19:04.211Z,95.90
2023-01-17T08:24:19.961Z,96.03
2023-01-17T08:29:24.465Z,95.69
2023-01-17T08:34:28.325Z,95.46
2023-01-17T08:39:32.467Z,95.54
2023-01-17T08:44:39.595Z,95.44
2023-01-17T08:49:45.325Z,95.23
2023-01-17T08:54:49.224Z,95.20
2023-01-17T08:59:52.954Z,95.23
2023-01-17T09:04:56.753Z,94.86
2023-01-17T09:10:03.951Z,94.85
2023-01-17T09:15:09.003Z,94.61
2023-01-17T09:20:12.948Z,94.44
2023-01-17T09:25:16.939Z,94.40
2023-01-17T09:30:21.017Z,93.84
2023-01-17T09:35:25.277Z,93.45
2023-01-17T09:40:29.127Z,93.22
2023-01-17T09:45:34.742Z,92.98
2023-01-17T09:50:51.768Z,92.72
2023-01-17T09:56:01.781Z,92.15
2023-01-17T10:01:56.271Z,91.68
2023-01-17T10:07:41.065Z,90.51
2023-01-17T10:12:58.942Z,89.37
2023-01-17T10:18:49.083Z,89.19
2023-01-17T10:24:05.150Z,88.99
2023-01-17T10:29:14.529Z,88.95
2023-01-17T10:34:28.253Z,88.10
2023-01-17T10:39:32.645Z,87.58
2023-01-17T10:44:41.873Z,87.15
2023-01-17T10:49:49.459Z,86.66
2023-01-17T10:55:06.278Z,86.45
2023-01-17T11:15:40.020Z,84.41
2023-01-17T11:20:44.408Z,83.73
2023-01-17T11:26:00.978Z,83.35
2023-01-17T11:31:24.595Z,83.55
2023-01-17T11:36:31.424Z,83.38
2023-01-17T11:41:37.810Z,83.24
2023-01-17T11:46:46.517Z,83.48
2023-01-17T11:51:58.462Z,83.63
2023-01-17T11:57:05.307Z,83.40
2023-01-17T12:02:46.388Z,82.99
2023-01-17T12:08:16.441Z,82.33
2023-01-17T12:14:01.033Z,82.07
2023-01-17T12:19:26.526Z,81.48
2023-01-17T12:25:01.176Z,80.87
2023-01-17T12:30:41.088Z,80.56
2023-01-17T12:36:13.111Z,80.17
2023-01-17T12:41:36.393Z,79.89
2023-01-17T12:47:12.998Z,79.56
2023-01-17T12:52:34.927Z,78.90
2023-01-17T12:57:46.831Z,78.51
2023-01-17T13:03:12.312Z,78.26
2023-01-17T13:09:01.242Z,77.98
2023-01-17T13:14:09.863Z,78.14
2023-01-17T13:20:01.332Z,77.54
2023-01-17T13:25:36.084Z,77.49
2023-01-17T13:31:08.759Z,77.21
2023-01-17T13:43:01.485Z,76.32
2023-01-17T13:48:20.541Z,76.30
2023-01-17T13:54:05.313Z,76.11
2023-01-17T13:59:28.599Z,75.38
2023-01-17T14:05:07.739Z,74.99
2023-01-17T14:10:36.452Z,74.86
2023-01-17T14:15:53.072Z,74.85
2023-01-17T14:21:24.110Z,74.76
2023-01-17T14:26:38.184Z,74.65
2023-01-17T14:31:42.701Z,74.49
2023-01-17T14:36:46.496Z,74.16
2023-01-17T14:41:50.234Z,74.04
2023-01-17T14:46:53.971Z,73.43
2023-01-17T14:52:04.960Z,73.08
2023-01-17T14:57:32.096Z,73.13
2023-01-17T15:02:46.622Z,73.03
2023-01-17T15:07:55.173Z,72.94
2023-01-17T15:13:06.934Z,73.80
2023-01-17T15:18:13.699Z,73.53
2023-01-17T15:23:20.145Z,73.01
2023-01-17T15:28:24.304Z,73.28
2023-01-17T15:33:28.259Z,73.46
2023-01-17T15:38:39.301Z,73.31
2023-01-17T15:43:44.840Z,73.50
2023-01-17T15:48:48.665Z,73.26
2023-01-17T15:53:52.330Z,73.19
2023-01-17T15:59:16.360Z,73.42
2023-01-17T16:04:34.392Z,73.63
2023-01-17T16:09:45.349Z,73.36
2023-01-17T16:15:02.811Z,73.39
2023-01-17T16:20:22.639Z,73.34
2023-01-17T16:25:32.589Z,73.43
2023-01-17T16:30:37.044Z,73.19
2023-01-17T16:35:41.752Z,73.20
2023-01-17T16:40:46.518Z,73.17
2023-01-17T16:45:53.584Z,73.14
2023-01-17T16:50:57.740Z,72.95
2023-01-17T16:56:08.718Z,72.87
2023-01-17T17:01:21.950Z,73.14
2023-01-17T17:06:27.303Z,73.35
2023-01-17T17:11:31.560Z,73.66
2023-01-17T17:16:35.723Z,73.47
2023-01-17T17:21:40.199Z,73.48
2023-01-17T17:26:45.379Z,73.60
2023-01-17T17:31:49.659Z,73.89
2023-01-17T17:36:53.784Z,73.56
2023-01-17T17:41:59.398Z,73.80
2023-01-17T17:47:04.343Z,73.94
2023-01-17T17:52:09.110Z,74.22
2023-01-17T17:57:12.817Z,74.65
2023-01-17T18:02:16.984Z,74.73
2023-01-17T18:07:22.642Z,74.87
2023-01-17T18:12:27.644Z,75.19
2023-01-17T18:17:33.095Z,75.27
2023-01-17T18:22:39.527Z,75.55
2023-01-17T18:27:45.405Z,75.82
2023-01-17T18:32:50.664Z,76.49
2023-01-17T18:37:55.252Z,76.61
2023-01-17T18:43:03.633Z,76.90
2023-01-17T18:48:10.179Z,76.94
2023-01-17T18:53:16.181Z,77.41
2023-01-17T18:58:24.952Z,77.91
2023-01-17T19:03:32.037Z,78.21
2023-01-17T19:08:38.447Z,77.84
2023-01-17T19:13:43.606Z,77.96
2023-01-17T19:18:48.609Z,78.30
2023-01-17T19:23:54.970Z,78.62
2023-01-17T19:29:01.572Z,78.31
2023-01-17T19:34:07.649Z,78.54
2023-01-17T19:39:12.718Z,79.35
2023-01-17T19:44:21.222Z,79.85
2023-01-17T19:49:28.858Z,79.43
2023-01-17T19:54:34.946Z,79.80
2023-01-17T19:59:40.021Z,80.08
2023-01-17T20:04:46.000Z,80.26
2023-01-17T20:09:53.911Z,79.95
2023-01-17T20:14:58.797Z,80.09
2023-01-17T20:20:08.057Z,80.28
2023-01-17T20:25:21.058Z,80.12
2023-01-17T20:30:30.857Z,80.49
2023-01-17T20:35:36.147Z,80.50
2023-01-17T20:40:45.163Z,80.76
2023-01-17T20:45:57.930Z,81.06
2023-01-17T20:51:10.934Z,81.44
2023-01-17T20:56:19.738Z,81.31
2023-01-17T21:01:24.147Z,81.56
2023-01-17T21:06:31.215Z,81.28
2023-01-17T21:11:54.824Z,81.49
2023-01-17T21:16:59.269Z,82.02
2023-01-17T21:22:05.929Z,82.06
2023-01-17T21:27:10.529Z,82.15
2023-01-17T21:32:14.276Z,82.62
2023-01-17T21:37:18.408Z,82.56
2023-01-17T21:42:22.490Z,83.36
2023-01-17T21:47:26.442Z,82.93
2023-01-17T21:52:32.092Z,83.83
2023-01-17T21:57:55.659Z,83.42
2023-01-17T22:03:00.006Z,83.38
2023-01-17T22:08:15.280Z,83.68
2023-01-17T22:13:19.726Z,84.06
2023-01-17T22:18:23.862Z,83.92
2023-01-17T22:23:27.625Z,84.12
2023-01-17T22:28:32.936Z,84.77
2023-01-17T22:33:38.326Z,84.85
2023-01-17T22:38:42.957Z,84.87
2023-01-17T22:43:49.514Z,85.30
2023-01-17T22:48:54.679Z,85.54
2023-01-17T22:54:00.438Z,85.61
2023-01-17T22:59:04.325Z,86.00
2023-01-17T23:04:10.283Z,86.15
2023-01-17T23:09:15.746Z,85.96
2023-01-17T23:15:01.344Z,86.34
2023-01-17T23:20:06.638Z,86.28
2023-01-17T23:25:12.859Z,86.45
2023-01-17T23:30:22.262Z,86.84
2023-01-17T23:35:28.764Z,86.87
2023-01-17T23:40:34.623Z,86.87
2023-01-17T23:45:39.983Z,87.10
2023-01-17T23:50:45.779Z,87.17
2023-01-17T23:55:52.073Z,87.26
